Dades meteomassalio
Diari Summary for Juliol 19, 2017 Units:  Metric    English   Both
« Previous Day
Next Day »
Diari Semanal Mensual Anual Personalitzat
  Maxima: Minima: Mijana:
Temperatura: 33.1 °C 20.9 °C 27.2 °C
Rosada: 18.9 °C 11.8 °C 17 °C
Humitat: 77 % 28 % 56 %
Velocitat del vent: 35.2 km/h 0.0 km/h 10.3 km/h
Racha vent: 35.2 km/h - -
Vent:- - ESE
Pressio: 1013.4 hPa 1007.7 hPa -
Pluja: 0.0 mm    
Historical Graphs
 
 
Tabular Data for Juliol 19, 2017
Time Temperature Dew Point Pressure Wind Wind Speed Wind Gust Humidity Rainfall Rate (Hourly) solar Conditions
00:05 24.6 °C 18.3 °C 1012.8 hPa SE 18.5 km/h 18.5 km/h 68 % 0.0 mm 0.0 W/m2 CLR
00:10 24.5 °C 18.2 °C 1013.1 hPa SE 18.5 km/h 18.5 km/h 68 % 0.0 mm 0.0 W/m2 CLR
00:15 24.6 °C 18.3 °C 1013.1 hPa SSE 14.8 km/h 14.8 km/h 68 % 0.0 mm 0.0 W/m2 CLR
00:20 24.7 °C 18.4 °C 1013.1 hPa SSE 16.7 km/h 16.7 km/h 68 % 0.0 mm 0.0 W/m2 CLR
00:25 24.7 °C 17.9 °C 1013.4 hPa South 16.1 km/h 16.1 km/h 66 % 0.0 mm 0.0 W/m2 CLR
00:30 24.8 °C 18.0 °C 1013.4 hPa South 11.1 km/h 11.1 km/h 66 % 0.0 mm 0.0 W/m2 CLR
00:35 24.8 °C 18.1 °C 1013.4 hPa Calm     66 % 0.0 mm 0.0 W/m2 CLR
00:40 24.8 °C 17.8 °C 1013.4 hPa Calm     65 % 0.0 mm 0.0 W/m2 CLR
00:45 24.8 °C 17.8 °C 1013.4 hPa Calm     65 % 0.0 mm 0.0 W/m2 CLR
00:50 24.8 °C 18.1 °C 1013.4 hPa Calm     66 % 0.0 mm 0.0 W/m2 CLR
00:55 24.7 °C 18.2 °C 1013.4 hPa Calm     67 % 0.0 mm 0.0 W/m2 CLR
01:00 24.6 °C 18.3 °C 1013.4 hPa Calm     68 % 0.0 mm 0.0 W/m2 CLR
01:05 24.4 °C 18.4 °C 1013.4 hPa Calm     69 % 0.0 mm 0.0 W/m2 CLR
01:10 24.3 °C 18.7 °C 1013.1 hPa ENE 4.8 km/h 4.8 km/h 71 % 0.0 mm 0.0 W/m2 CLR
01:15 24.2 °C 18.8 °C 1012.8 hPa ENE 7.4 km/h 7.4 km/h 72 % 0.0 mm 0.0 W/m2 CLR
01:20 24.1 °C 18.9 °C 1013.1 hPa Calm     73 % 0.0 mm 0.0 W/m2 CLR
01:25 24.1 °C 18.9 °C 1012.8 hPa Calm     73 % 0.0 mm 0.0 W/m2 CLR
01:26 24.1 °C 18.9 °C 1012.8 hPa Calm     73 % 0.0 mm 0.0 W/m2 CLR
01:31 24.1 °C 18.9 °C 1013.1 hPa Calm     73 % 0.0 mm 0.0 W/m2 CLR
01:36 24.0 °C 18.8 °C 1013.1 hPa Calm     73 % 0.0 mm 0.0 W/m2 CLR
01:41 24.1 °C 18.7 °C 1012.8 hPa SE 11.1 km/h 11.1 km/h 72 % 0.0 mm 0.0 W/m2 CLR
01:46 24.1 °C 18.7 °C 1013.1 hPa SE 7.4 km/h 7.4 km/h 72 % 0.0 mm 0.0 W/m2 CLR
01:51 24.1 °C 18.7 °C 1013.1 hPa Calm     72 % 0.0 mm 0.0 W/m2 CLR
01:56 24.0 °C 18.7 °C 1012.8 hPa Calm     72 % 0.0 mm 0.0 W/m2 CLR
02:01 24.0 °C 18.7 °C 1012.8 hPa Calm     72 % 0.0 mm 0.0 W/m2 CLR
02:06 24.0 °C 18.4 °C 1012.8 hPa Calm     71 % 0.0 mm 0.0 W/m2 CLR
02:11 23.8 °C 18.5 °C 1012.8 hPa Calm     72 % 0.0 mm 0.0 W/m2 CLR
02:16 23.8 °C 18.4 °C 1013.1 hPa Calm     72 % 0.0 mm 0.0 W/m2 CLR
02:21 23.7 °C 18.4 °C 1012.8 hPa Calm     72 % 0.0 mm 0.0 W/m2 CLR
02:26 23.7 °C 18.4 °C 1012.8 hPa Calm     72 % 0.0 mm 0.0 W/m2 CLR
02:27 23.7 °C 18.4 °C 1012.8 hPa Calm     72 % 0.0 mm 0.0 W/m2 CLR
02:32 23.7 °C 18.3 °C 1012.8 hPa Calm     72 % 0.0 mm 0.0 W/m2 CLR
02:37 23.7 °C 18.2 °C 1012.8 hPa Calm     71 % 0.0 mm 0.0 W/m2 CLR
02:42 23.7 °C 18.1 °C 1012.8 hPa Calm     71 % 0.0 mm 0.0 W/m2 CLR
02:47 23.4 °C 18.3 °C 1012.4 hPa Calm     73 % 0.0 mm 0.0 W/m2 CLR
02:52 23.2 °C 18.1 °C 1012.4 hPa Calm     73 % 0.0 mm 0.0 W/m2 CLR
02:57 23.1 °C 18.2 °C 1012.4 hPa Calm     74 % 0.0 mm 0.0 W/m2 CLR
03:02 23.1 °C 18.2 °C 1012.4 hPa Calm     74 % 0.0 mm 0.0 W/m2 CLR
03:07 22.9 °C 18.3 °C 1012.4 hPa Calm     75 % 0.0 mm 0.0 W/m2 CLR
03:12 22.8 °C 18.3 °C 1012.1 hPa Calm     76 % 0.0 mm 0.0 W/m2 CLR
03:17 22.7 °C 18.4 °C 1012.1 hPa Calm     77 % 0.0 mm 0.0 W/m2 CLR
03:22 22.6 °C 18.3 °C 1012.1 hPa Calm     77 % 0.0 mm 0.0 W/m2 CLR
03:27 22.6 °C 18.3 °C 1012.1 hPa Calm     77 % 0.0 mm 0.0 W/m2 CLR
03:32 22.6 °C 18.3 °C 1012.1 hPa Calm     77 % 0.0 mm 0.0 W/m2 CLR
03:37 22.6 °C 18.3 °C 1012.1 hPa Calm     77 % 0.0 mm 0.0 W/m2 CLR
03:42 22.4 °C 18.0 °C 1012.1 hPa Calm     76 % 0.0 mm 0.0 W/m2 CLR
03:47 22.5 °C 17.8 °C 1011.7 hPa Calm     75 % 0.0 mm 0.0 W/m2 CLR
03:52 22.6 °C 17.9 °C 1011.7 hPa Calm     75 % 0.0 mm 0.0 W/m2 CLR
03:57 22.4 °C 17.7 °C 1011.7 hPa Calm     75 % 0.0 mm 0.0 W/m2 CLR
04:02 22.2 °C 17.4 °C 1011.7 hPa Calm     74 % 0.0 mm 0.0 W/m2 CLR
04:07 22.1 °C 17.4 °C 1011.7 hPa Calm     75 % 0.0 mm 0.0 W/m2 CLR
04:12 22.0 °C 17.4 °C 1011.7 hPa Calm     75 % 0.0 mm 0.0 W/m2 CLR
04:17 21.8 °C 17.2 °C 1011.7 hPa Calm     75 % 0.0 mm 0.0 W/m2 CLR
04:22 21.8 °C 17.3 °C 1011.7 hPa Calm     76 % 0.0 mm 0.0 W/m2 CLR
04:27 21.6 °C 17.2 °C 1011.4 hPa Calm     76 % 0.0 mm 0.0 W/m2 CLR
04:32 21.4 °C 17.0 °C 1011.4 hPa Calm     76 % 0.0 mm 0.0 W/m2 CLR
04:37 21.2 °C 16.8 °C 1011.4 hPa Calm     76 % 0.0 mm 0.0 W/m2 CLR
04:42 21.2 °C 17.0 °C 1011.7 hPa Calm     77 % 0.0 mm 0.0 W/m2 CLR
04:47 21.1 °C 16.9 °C 1011.7 hPa Calm     77 % 0.0 mm 0.0 W/m2 CLR
04:52 21.1 °C 16.9 °C 1011.7 hPa Calm     77 % 0.0 mm 0.0 W/m2 CLR
04:57 21.2 °C 16.3 °C 1012.1 hPa Calm     74 % 0.0 mm 0.0 W/m2 CLR
05:02 21.4 °C 16.3 °C 1012.1 hPa Calm     73 % 0.0 mm 0.0 W/m2 CLR
05:07 21.6 °C 16.6 °C 1012.1 hPa Calm     73 % 0.0 mm 0.0 W/m2 CLR
05:12 21.6 °C 16.8 °C 1012.1 hPa Calm     74 % 0.0 mm 0.0 W/m2 CLR
05:13 21.6 °C 16.8 °C 1012.1 hPa Calm     74 % 0.0 mm 0.0 W/m2 CLR
05:18 21.4 °C 16.6 °C 1012.1 hPa Calm     74 % 0.0 mm 0.0 W/m2 CLR
05:23 21.3 °C 16.7 °C 1012.8 hPa Calm     75 % 0.0 mm 0.0 W/m2 CLR
05:28 21.1 °C 16.7 °C 1012.8 hPa Calm     76 % 0.0 mm 0.0 W/m2 CLR
05:33 21.0 °C 16.4 °C 1012.8 hPa Calm     75 % 0.0 mm 0.0 W/m2 CLR
05:38 21.1 °C 16.7 °C 1012.8 hPa Calm     76 % 0.0 mm 0.0 W/m2 CLR
05:43 21.1 °C 16.4 °C 1012.8 hPa Calm     75 % 0.0 mm 0.0 W/m2 CLR
05:48 21.1 °C 16.0 °C 1012.8 hPa ENE 3.7 km/h 3.7 km/h 73 % 0.0 mm 0.0 W/m2 CLR
05:53 21.2 °C 15.8 °C 1012.4 hPa Calm     71 % 0.0 mm 0.0 W/m2 CLR
05:58 21.1 °C 15.9 °C 1012.1 hPa NNE 5.6 km/h 5.6 km/h 72 % 0.0 mm 0.0 W/m2 CLR
06:03 20.9 °C 15.4 °C 1012.1 hPa NNE 13.0 km/h 13.0 km/h 71 % 0.0 mm 0.0 W/m2 CLR
06:08 20.9 °C 13.6 °C 1012.4 hPa North 14.8 km/h 14.8 km/h 63 % 0.0 mm 0.0 W/m2 CLR
06:13 21.6 °C 13.8 °C 1012.4 hPa Calm     61 % 0.0 mm 0.0 W/m2 CLR
06:18 21.9 °C 13.3 °C 1012.4 hPa Calm     58 % 0.0 mm 0.0 W/m2 CLR
06:23 21.9 °C 14.3 °C 1012.4 hPa Calm     62 % 0.0 mm 0.0 W/m2 CLR
06:28 21.8 °C 13.7 °C 1012.8 hPa Calm     60 % 0.0 mm 0.0 W/m2 CLR
06:33 21.7 °C 13.6 °C 1012.4 hPa Calm     60 % 0.0 mm 0.0 W/m2 OVC
06:38 21.8 °C 12.1 °C 1012.4 hPa Calm     54 % 0.0 mm 0.0 W/m2 OVC
06:43 22.0 °C 12.6 °C 1012.1 hPa Calm     55 % 0.0 mm 0.0 W/m2 OVC
06:48 22.1 °C 13.4 °C 1012.4 hPa Calm     58 % 0.0 mm 0.0 W/m2 OVC
06:53 21.9 °C 14.3 °C 1012.4 hPa Calm     62 % 0.0 mm 0.0 W/m2 OVC
06:58 21.8 °C 14.4 °C 1012.4 hPa Calm     63 % 0.0 mm 0.0 W/m2 OVC
07:03 21.7 °C 13.3 °C 1011.7 hPa East 5.6 km/h 5.6 km/h 59 % 0.0 mm 0.0 W/m2 OVC
07:08 21.9 °C 14.1 °C 1011.7 hPa Calm     61 % 0.0 mm 5.0 W/m2 OVC
07:14 22.1 °C 13.4 °C 1011.7 hPa Calm     58 % 0.0 mm 11.0 W/m2 BKN
07:19 22.4 °C 13.2 °C 1012.1 hPa Calm   1.0 km/h 56 % 0.0 mm 18.0 W/m2 BKN
07:24 23.1 °C 13.6 °C 1012.1 hPa South 11.1 km/h 11.1 km/h 55 % 0.0 mm 32.0 W/m2 BKN
07:29 23.7 °C 13.8 °C 1012.1 hPa SSE 5.6 km/h   54 % 0.0 mm 40.0 W/m2 BKN
07:34 23.9 °C 14.1 °C 1012.1 hPa ESE 5.6 km/h 5.6 km/h 54 % 0.0 mm 35.0 W/m2 BKN
07:39 24.1 °C 14.2 °C 1012.1 hPa Calm     54 % 0.0 mm 35.0 W/m2 BKN
07:44 24.1 °C 14.2 °C 1012.1 hPa SSE 8.0 km/h 8.0 km/h 54 % 0.0 mm 33.0 W/m2 BKN
07:49 24.3 °C 14.1 °C 1012.1 hPa SE 18.5 km/h 18.5 km/h 53 % 0.0 mm 26.0 W/m2 BKN
07:54 24.6 °C 14.1 °C 1012.1 hPa SSE 18.5 km/h 18.5 km/h 52 % 0.0 mm 23.0 W/m2 BKN
07:59 24.7 °C 14.2 °C 1012.1 hPa SSE 13.0 km/h 13.0 km/h 52 % 0.0 mm 21.0 W/m2 BKN
08:04 24.7 °C 13.9 °C 1012.1 hPa SSE 12.9 km/h 12.9 km/h 51 % 0.0 mm 21.0 W/m2 BKN
08:09 24.8 °C 13.9 °C 1012.1 hPa SSE 18.5 km/h 18.5 km/h 51 % 0.0 mm 21.0 W/m2 BKN
08:14 24.8 °C 13.7 °C 1012.1 hPa NNE 8.0 km/h 8.0 km/h 50 % 0.0 mm 25.0 W/m2 BKN
08:19 24.6 °C 14.4 °C 1012.4 hPa North 13.0 km/h 13.0 km/h 53 % 0.0 mm 28.0 W/m2 BKN
08:24 24.5 °C 14.3 °C 1012.8 hPa North 7.4 km/h 7.4 km/h 53 % 0.0 mm 40.0 W/m2 BKN
08:29 24.6 °C 14.4 °C 1012.4 hPa Calm     53 % 0.0 mm 54.0 W/m2 BKN
08:34 24.6 °C 15.2 °C 1012.4 hPa NNE 11.3 km/h 11.3 km/h 56 % 0.0 mm 79.0 W/m2 SCT
08:39 24.4 °C 16.9 °C 1012.1 hPa ENE 14.8 km/h 14.8 km/h 63 % 0.0 mm 100.0 W/m2 FEW
08:44 24.2 °C 17.2 °C 1012.1 hPa ENE 9.3 km/h 9.3 km/h 65 % 0.0 mm 135.0 W/m2 CLR
08:49 24.2 °C 17.2 °C 1012.1 hPa Calm     65 % 0.0 mm 149.0 W/m2 CLR
08:54 24.3 °C 17.6 °C 1012.1 hPa Calm     66 % 0.0 mm 213.0 W/m2 CLR
08:59 24.5 °C 17.7 °C 1012.1 hPa Calm     66 % 0.0 mm 148.0 W/m2 CLR
09:04 24.6 °C 17.6 °C 1012.1 hPa Calm     65 % 0.0 mm 156.0 W/m2 CLR
09:09 24.7 °C 17.4 °C 1012.1 hPa SE 1.9 km/h 1.9 km/h 64 % 0.0 mm 130.0 W/m2 CLR
09:14 24.8 °C 17.3 °C 1012.1 hPa SE 11.3 km/h 11.3 km/h 63 % 0.0 mm 120.0 W/m2 CLR
09:19 24.9 °C 17.4 °C 1012.1 hPa SSE 11.3 km/h 11.3 km/h 63 % 0.0 mm 165.0 W/m2 CLR
09:24 25.1 °C 17.5 °C 1011.7 hPa ESE 11.1 km/h 11.1 km/h 63 % 0.0 mm 193.0 W/m2 CLR
09:29 25.2 °C 17.7 °C 1011.4 hPa ESE 18.5 km/h 18.5 km/h 63 % 0.0 mm 374.0 W/m2 CLR
09:34 25.4 °C 17.6 °C 1011.4 hPa SE 18.5 km/h 18.5 km/h 62 % 0.0 mm 200.0 W/m2 CLR
09:39 25.6 °C 17.6 °C 1011.7 hPa SSE 11.1 km/h 11.1 km/h 61 % 0.0 mm 230.0 W/m2 CLR
09:44 25.9 °C 17.8 °C 1011.7 hPa ESE 16.7 km/h 16.7 km/h 61 % 0.0 mm 473.0 W/m2 CLR
09:49 26.1 °C 18.4 °C 1011.7 hPa SSE 13.0 km/h 13.0 km/h 63 % 0.0 mm 336.0 W/m2 CLR
09:54 25.8 °C 18.3 °C 1011.7 hPa East 14.8 km/h 14.8 km/h 63 % 0.0 mm 290.0 W/m2 CLR
09:59 26.0 °C 18.2 °C 1011.7 hPa Calm     62 % 0.0 mm 264.0 W/m2 CLR
10:04 26.2 °C 18.1 °C 1011.7 hPa Calm     61 % 0.0 mm 290.0 W/m2 CLR
10:09 26.6 °C 17.9 °C 1011.7 hPa SE 8.0 km/h 8.0 km/h 59 % 0.0 mm 427.0 W/m2 CLR
10:14 27.2 °C 17.3 °C 1011.7 hPa SSE 18.5 km/h 18.5 km/h 55 % 0.0 mm 503.0 W/m2 CLR
10:19 27.4 °C 17.3 °C 1011.4 hPa SE 18.5 km/h 18.5 km/h 54 % 0.0 mm 575.0 W/m2 CLR
10:24 27.6 °C 17.1 °C 1011.4 hPa SSE 22.2 km/h 22.2 km/h 53 % 0.0 mm 443.0 W/m2 CLR
10:29 27.7 °C 17.3 °C 1011.4 hPa South 18.5 km/h 18.5 km/h 53 % 0.0 mm 499.0 W/m2 CLR
10:34 27.8 °C 17.7 °C 1011.4 hPa SE 13.0 km/h 13.0 km/h 54 % 0.0 mm 570.0 W/m2 CLR
10:39 28.1 °C 17.6 °C 1011.4 hPa ESE 9.7 km/h 9.7 km/h 53 % 0.0 mm 640.0 W/m2 CLR
10:44 28.4 °C 17.9 °C 1011.4 hPa East 4.8 km/h 4.8 km/h 53 % 0.0 mm 664.0 W/m2 CLR
10:49 28.8 °C 17.6 °C 1011.4 hPa ESE 5.6 km/h 5.6 km/h 51 % 0.0 mm 663.0 W/m2 CLR
10:54 29.1 °C 16.9 °C 1011.4 hPa SE 13.0 km/h 13.0 km/h 48 % 0.0 mm 701.0 W/m2 CLR
10:59 29.5 °C 17.0 °C 1011.4 hPa South 5.6 km/h   47 % 0.0 mm 668.0 W/m2 CLR
11:04 29.8 °C 16.9 °C 1011.4 hPa SE 5.6 km/h 5.6 km/h 46 % 0.0 mm 570.0 W/m2 CLR
11:09 30.0 °C 16.8 °C 1011.4 hPa SE 8.0 km/h 8.0 km/h 45 % 0.0 mm 573.0 W/m2 CLR
11:14 30.2 °C 16.3 °C 1011.4 hPa Calm     43 % 0.0 mm 724.0 W/m2 CLR
11:19 30.4 °C 16.1 °C 1011.1 hPa SSE 5.6 km/h 5.6 km/h 42 % 0.0 mm 547.0 W/m2 CLR
11:24 30.6 °C 16.6 °C 1011.1 hPa ENE 5.6 km/h 5.6 km/h 43 % 0.0 mm 573.0 W/m2 CLR
11:29 30.9 °C 16.5 °C 1011.1 hPa ENE 4.8 km/h 4.8 km/h 42 % 0.0 mm 645.0 W/m2 CLR
11:34 31.2 °C 15.9 °C 1011.1 hPa ENE 5.6 km/h 5.6 km/h 40 % 0.0 mm 715.0 W/m2 CLR
11:39 31.3 °C 17.6 °C 1011.1 hPa NE 7.4 km/h 10.8 km/h 44 % 0.0 mm 524.0 W/m2 CLR
11:44 31.2 °C 17.1 °C 1011.1 hPa NE 14.8 km/h 14.8 km/h 43 % 0.0 mm 450.0 W/m2 CLR
11:49 30.9 °C 17.2 °C 1011.1 hPa ENE 14.8 km/h 14.8 km/h 44 % 0.0 mm 452.0 W/m2 CLR
11:54 30.8 °C 17.5 °C 1011.1 hPa NE 14.5 km/h 14.5 km/h 45 % 0.0 mm 457.0 W/m2 CLR
12:05 30.8 °C 17.5 °C 1011.1 hPa NE 13.0 km/h 13.0 km/h 45 % 0.0 mm 506.0 W/m2 CLR
12:09 30.9 °C 17.9 °C 1011.1 hPa NE 11.1 km/h 11.1 km/h 46 % 0.0 mm 594.0 W/m2 CLR
12:15 31.0 °C 18.4 °C 1011.1 hPa NE 16.7 km/h 16.7 km/h 47 % 0.0 mm 561.0 W/m2 CLR
12:20 30.8 °C 17.8 °C 1011.1 hPa NE 14.8 km/h 14.8 km/h 46 % 0.0 mm 499.0 W/m2 CLR
12:25 31.0 °C 16.6 °C 1010.7 hPa ESE 16.7 km/h 16.7 km/h 42 % 0.0 mm 912.0 W/m2 CLR
12:30 31.6 °C 17.1 °C 1010.7 hPa ESE 20.9 km/h 20.9 km/h 42 % 0.0 mm 555.0 W/m2 CLR
12:35 31.3 °C 17.6 °C 1010.7 hPa ENE 24.1 km/h 24.1 km/h 44 % 0.0 mm 939.0 W/m2 CLR
12:40 31.1 °C 17.4 °C 1010.7 hPa East 22.2 km/h 22.2 km/h 44 % 0.0 mm 496.0 W/m2 CLR
12:45 31.5 °C 17.4 °C 1010.7 hPa ESE 27.8 km/h 27.8 km/h 43 % 0.0 mm 534.0 W/m2 CLR
12:50 31.6 °C 16.7 °C 1010.7 hPa ESE 24.1 km/h 24.1 km/h 41 % 0.0 mm 735.0 W/m2 CLR
12:55 31.8 °C 17.3 °C 1010.7 hPa East 22.2 km/h 22.2 km/h 42 % 0.0 mm 965.0 W/m2 CLR
13:00 31.9 °C 16.2 °C 1010.7 hPa ESE 11.1 km/h 11.1 km/h 39 % 0.0 mm 798.0 W/m2 CLR
13:05 32.3 °C 12.0 °C 1010.7 hPa SSE 29.6 km/h 29.6 km/h 29 % 0.0 mm 960.0 W/m2 CLR
13:10 32.7 °C 11.8 °C 1010.7 hPa SSE 24.1 km/h 24.1 km/h 28 % 0.0 mm 912.0 W/m2 CLR
13:15 33.1 °C 12.1 °C 1010.7 hPa SSE 35.2 km/h 35.2 km/h 28 % 0.0 mm 905.0 W/m2 CLR
13:20 32.7 °C 12.3 °C 1010.7 hPa SSW 24.1 km/h 24.1 km/h 29 % 0.0 mm 904.0 W/m2 CLR
13:25 32.6 °C 12.8 °C 1010.7 hPa SSE 30.6 km/h 30.6 km/h 30 % 0.0 mm 900.0 W/m2 CLR
13:30 32.4 °C 12.6 °C 1011.1 hPa SE 18.5 km/h 18.5 km/h 30 % 0.0 mm 905.0 W/m2 CLR
13:35 32.7 °C 12.8 °C 1010.7 hPa SSE 22.2 km/h 22.2 km/h 30 % 0.0 mm 905.0 W/m2 CLR
13:36 32.7 °C 12.8 °C 1010.7 hPa South 18.5 km/h 18.5 km/h 30 % 0.0 mm 909.0 W/m2 CLR
13:41 32.7 °C 12.9 °C 1010.7 hPa SSW 24.1 km/h 24.1 km/h 30 % 0.0 mm 900.0 W/m2 CLR
13:46 32.6 °C 15.6 °C 1010.7 hPa SSE 25.9 km/h 25.9 km/h 36 % 0.0 mm 909.0 W/m2 CLR
13:51 32.6 °C 13.3 °C 1010.7 hPa SE 22.2 km/h 22.2 km/h 31 % 0.0 mm 911.0 W/m2 CLR
13:56 32.8 °C 16.6 °C 1010.7 hPa South 22.2 km/h 22.2 km/h 38 % 0.0 mm 914.0 W/m2 CLR
14:01 32.8 °C 16.7 °C 1010.4 hPa South 24.1 km/h 24.1 km/h 38 % 0.0 mm 925.0 W/m2 CLR
14:06 32.7 °C 16.9 °C 1010.4 hPa SSE 29.0 km/h 29.0 km/h 39 % 0.0 mm 932.0 W/m2 CLR
14:11 32.2 °C 18.1 °C 1010.0 hPa SE 24.1 km/h 24.1 km/h 43 % 0.0 mm 905.0 W/m2 CLR
14:16 32.1 °C 18.3 °C 1010.4 hPa ESE 29.6 km/h 29.6 km/h 44 % 0.0 mm 867.0 W/m2 CLR
14:21 32.3 °C 18.2 °C 1010.4 hPa ESE 24.1 km/h 24.1 km/h 43 % 0.0 mm 928.0 W/m2 CLR
14:26 31.8 °C 18.4 °C 1010.0 hPa ESE 24.1 km/h 24.1 km/h 45 % 0.0 mm 942.0 W/m2 CLR
14:31 31.9 °C 18.5 °C 1010.0 hPa ESE 24.1 km/h 24.1 km/h 45 % 0.0 mm 935.0 W/m2 CLR
14:36 32.3 °C 18.2 °C 1010.0 hPa East 18.5 km/h 18.5 km/h 43 % 0.0 mm 946.0 W/m2 CLR
14:41 32.7 °C 18.9 °C 1010.0 hPa ESE 20.4 km/h 20.4 km/h 44 % 0.0 mm 925.0 W/m2 CLR
14:42 32.8 °C 18.9 °C 1010.0 hPa East 20.4 km/h 20.4 km/h 44 % 0.0 mm 923.0 W/m2 CLR
14:47 33.0 °C 15.9 °C 1010.0 hPa South 20.9 km/h 20.9 km/h 36 % 0.0 mm 918.0 W/m2 CLR
14:52 33.1 °C 17.3 °C 1010.0 hPa ESE 16.1 km/h 16.1 km/h 39 % 0.0 mm 937.0 W/m2 CLR
14:57 32.9 °C 16.7 °C 1009.7 hPa SSE 27.8 km/h 27.8 km/h 38 % 0.0 mm 933.0 W/m2 CLR
15:02 32.9 °C 17.6 °C 1009.7 hPa SSE 27.8 km/h 27.8 km/h 40 % 0.0 mm 912.0 W/m2 CLR
15:07 32.5 °C 17.2 °C 1009.7 hPa South 20.9 km/h 20.9 km/h 40 % 0.0 mm 921.0 W/m2 CLR
15:12 32.4 °C 15.8 °C 1009.7 hPa South 25.9 km/h 25.9 km/h 37 % 0.0 mm 919.0 W/m2 CLR
15:17 32.8 °C 15.7 °C 1009.4 hPa South 29.6 km/h 29.6 km/h 36 % 0.0 mm 925.0 W/m2 CLR
15:22 32.7 °C 16.9 °C 1009.7 hPa SSE 18.5 km/h 18.5 km/h 39 % 0.0 mm 960.0 W/m2 CLR
15:27 32.6 °C 16.8 °C 1009.7 hPa SE 27.8 km/h 27.8 km/h 39 % 0.0 mm 896.0 W/m2 CLR
15:32 32.7 °C 16.9 °C 1009.7 hPa South 22.2 km/h 22.2 km/h 39 % 0.0 mm 984.0 W/m2 CLR
15:37 32.6 °C 16.8 °C 1009.4 hPa SE 19.3 km/h 19.3 km/h 39 % 0.0 mm 1000.0 W/m2 CLR
15:42 32.7 °C 16.9 °C 1009.4 hPa SE 31.5 km/h 31.5 km/h 39 % 0.0 mm 974.0 W/m2 CLR
15:47 32.7 °C 16.9 °C 1009.4 hPa SE 24.1 km/h 24.1 km/h 39 % 0.0 mm 974.0 W/m2 CLR
15:52 32.3 °C 16.6 °C 1009.4 hPa SE 27.8 km/h 27.8 km/h 39 % 0.0 mm 243.0 W/m2 CLR
15:57 32.1 °C 16.8 °C 1009.0 hPa SE 25.9 km/h 25.9 km/h 40 % 0.0 mm 250.0 W/m2 CLR
16:02 32.1 °C 16.8 °C 1009.0 hPa SE 16.7 km/h 16.7 km/h 40 % 0.0 mm 229.0 W/m2 CLR
16:07 32.2 °C 16.5 °C 1009.0 hPa SE 25.7 km/h 25.7 km/h 39 % 0.0 mm 353.0 W/m2 CLR
16:12 32.3 °C 16.6 °C 1009.0 hPa SE 25.9 km/h 25.9 km/h 39 % 0.0 mm 381.0 W/m2 CLR
16:17 32.5 °C 16.8 °C 1009.0 hPa SE 13.0 km/h 13.0 km/h 39 % 0.0 mm 712.0 W/m2 CLR
16:22 32.6 °C 16.8 °C 1009.0 hPa ESE 13.0 km/h 13.0 km/h 39 % 0.0 mm 422.0 W/m2 CLR
16:27 32.7 °C 16.6 °C 1009.0 hPa SSE 18.5 km/h 18.5 km/h 38 % 0.0 mm 422.0 W/m2 CLR
16:32 32.9 °C 16.3 °C 1009.0 hPa SE 24.1 km/h 24.1 km/h 37 % 0.0 mm 422.0 W/m2 CLR
16:37 32.4 °C 16.3 °C 1008.7 hPa SE 20.9 km/h 20.9 km/h 38 % 0.0 mm 315.0 W/m2 CLR
16:38 32.4 °C 16.2 °C 1008.7 hPa SE 20.4 km/h 20.4 km/h 38 % 0.0 mm 306.0 W/m2 CLR
16:43 32.3 °C 16.2 °C 1008.7 hPa SE 18.5 km/h 18.5 km/h 38 % 0.0 mm 388.0 W/m2 CLR
16:48 32.2 °C 16.1 °C 1008.7 hPa SE 25.9 km/h 25.9 km/h 38 % 0.0 mm 387.0 W/m2 CLR
16:53 31.9 °C 15.8 °C 1008.7 hPa SE 20.4 km/h 20.4 km/h 38 % 0.0 mm 376.0 W/m2 CLR
16:58 31.8 °C 15.8 °C 1008.7 hPa SSE 29.6 km/h 29.6 km/h 38 % 0.0 mm 373.0 W/m2 CLR
17:03 32.1 °C 16.8 °C 1008.7 hPa SE 20.4 km/h 20.4 km/h 40 % 0.0 mm 788.0 W/m2 CLR
17:08 31.9 °C 16.7 °C 1008.7 hPa ESE 20.4 km/h 20.4 km/h 40 % 0.0 mm 381.0 W/m2 CLR
17:13 31.7 °C 16.8 °C 1008.7 hPa SE 18.5 km/h 18.5 km/h 41 % 0.0 mm 434.0 W/m2 CLR
17:18 31.7 °C 16.8 °C 1008.7 hPa SSE 17.7 km/h 17.7 km/h 41 % 0.0 mm 796.0 W/m2 CLR
17:23 31.8 °C 16.9 °C 1008.4 hPa ESE 18.5 km/h 18.5 km/h 41 % 0.0 mm 362.0 W/m2 CLR
17:28 32.0 °C 16.3 °C 1008.4 hPa ESE 20.4 km/h 20.4 km/h 39 % 0.0 mm 830.0 W/m2 CLR
17:33 32.2 °C 16.4 °C 1008.4 hPa ESE 20.4 km/h 20.4 km/h 39 % 0.0 mm 824.0 W/m2 CLR
17:38 32.2 °C 16.5 °C 1008.4 hPa ESE 25.9 km/h 25.9 km/h 39 % 0.0 mm 663.0 W/m2 CLR
17:43 31.9 °C 17.4 °C 1008.4 hPa East 18.5 km/h 18.5 km/h 42 % 0.0 mm 144.0 W/m2 CLR
17:48 31.4 °C 17.7 °C 1008.4 hPa ESE 20.4 km/h 20.4 km/h 44 % 0.0 mm 162.0 W/m2 CLR
17:53 31.2 °C 17.4 °C 1008.4 hPa ESE 20.4 km/h 20.4 km/h 44 % 0.0 mm 192.0 W/m2 CLR
17:58 31.0 °C 17.7 °C 1008.4 hPa East 14.8 km/h 14.8 km/h 45 % 0.0 mm 202.0 W/m2 CLR
18:03 30.9 °C 17.6 °C 1008.4 hPa ESE 14.5 km/h 14.5 km/h 45 % 0.0 mm 216.0 W/m2 CLR
18:08 30.8 °C 17.5 °C 1008.4 hPa ESE 16.7 km/h 16.7 km/h 45 % 0.0 mm 211.0 W/m2 CLR
18:13 30.7 °C 17.7 °C 1008.4 hPa East 14.8 km/h 14.8 km/h 46 % 0.0 mm 220.0 W/m2 CLR
18:18 30.6 °C 17.7 °C 1008.4 hPa East 5.6 km/h 5.6 km/h 46 % 0.0 mm 503.0 W/m2 CLR
18:19 30.7 °C 17.8 °C 1008.4 hPa ESE 13.0 km/h 13.0 km/h 46 % 0.0 mm 394.0 W/m2 CLR
18:24 30.6 °C 18.0 °C 1008.4 hPa ESE 13.0 km/h 13.0 km/h 47 % 0.0 mm 107.0 W/m2 CLR
18:25 30.6 °C 18.0 °C 1008.4 hPa ESE 13.0 km/h 13.0 km/h 47 % 0.0 mm 107.0 W/m2 CLR
18:30 30.4 °C 17.8 °C 1008.4 hPa East 16.7 km/h 16.7 km/h 47 % 0.0 mm 114.0 W/m2 CLR
18:35 30.4 °C 17.9 °C 1008.4 hPa ESE 13.0 km/h 13.0 km/h 47 % 0.0 mm 531.0 W/m2 CLR
18:40 30.7 °C 18.1 °C 1008.0 hPa ESE 13.0 km/h 13.0 km/h 47 % 0.0 mm 496.0 W/m2 CLR
18:45 30.8 °C 18.2 °C 1008.0 hPa ESE 9.7 km/h 9.7 km/h 47 % 0.0 mm 146.0 W/m2 CLR
18:50 30.6 °C 17.9 °C 1008.0 hPa ESE 13.0 km/h 13.0 km/h 47 % 0.0 mm 163.0 W/m2 CLR
18:55 30.6 °C 18.3 °C 1008.0 hPa East 13.0 km/h 13.0 km/h 48 % 0.0 mm 418.0 W/m2 CLR
19:00 30.6 °C 18.0 °C 1008.0 hPa East 14.8 km/h 14.8 km/h 47 % 0.0 mm 142.0 W/m2 CLR
19:05 30.6 °C 18.0 °C 1008.0 hPa ESE 9.3 km/h 9.3 km/h 47 % 0.0 mm 146.0 W/m2 CLR
19:10 30.4 °C 17.9 °C 1008.0 hPa East 13.0 km/h 13.0 km/h 47 % 0.0 mm 183.0 W/m2 CLR
19:15 30.3 °C 17.7 °C 1007.7 hPa ESE 9.3 km/h 9.3 km/h 47 % 0.0 mm 311.0 W/m2 CLR
19:20 30.7 °C 16.7 °C 1007.7 hPa East 8.0 km/h 8.0 km/h 43 % 0.0 mm 90.0 W/m2 CLR
19:25 30.9 °C 17.3 °C 1007.7 hPa ESE 17.7 km/h 17.7 km/h 44 % 0.0 mm 91.0 W/m2 CLR
19:30 30.4 °C 17.1 °C 1007.7 hPa SE 22.2 km/h 22.2 km/h 45 % 0.0 mm 70.0 W/m2 CLR
19:35 30.2 °C 17.3 °C 1007.7 hPa ESE 13.0 km/h 13.0 km/h 46 % 0.0 mm 67.0 W/m2 FEW
19:40 30.2 °C 17.3 °C 1007.7 hPa East 14.8 km/h 14.8 km/h 46 % 0.0 mm 56.0 W/m2 FEW
19:45 30.1 °C 17.6 °C 1007.7 hPa SE 5.6 km/h 5.6 km/h 47 % 0.0 mm 60.0 W/m2 FEW
19:50 30.0 °C 17.4 °C 1007.7 hPa ESE 16.7 km/h 16.7 km/h 47 % 0.0 mm 54.0 W/m2 SCT
19:55 29.9 °C 17.3 °C 1007.7 hPa ESE 14.8 km/h 14.8 km/h 47 % 0.0 mm 40.0 W/m2 SCT
20:00 29.8 °C 17.3 °C 1007.7 hPa ESE 9.3 km/h 9.3 km/h 47 % 0.0 mm 30.0 W/m2 BKN
20:05 29.7 °C 17.5 °C 1007.7 hPa SE 14.8 km/h 14.8 km/h 48 % 0.0 mm 25.0 W/m2 BKN
20:10 29.4 °C 17.6 °C 1008.0 hPa ESE 9.3 km/h 9.3 km/h 49 % 0.0 mm 26.0 W/m2 BKN
20:15 29.3 °C 17.4 °C 1008.0 hPa SE 13.0 km/h 13.0 km/h 49 % 0.0 mm 33.0 W/m2 BKN
20:20 29.2 °C 17.3 °C 1007.7 hPa ESE 16.7 km/h 16.7 km/h 49 % 0.0 mm 60.0 W/m2 BKN
20:25 29.0 °C 17.5 °C 1008.0 hPa SE 14.8 km/h 14.8 km/h 50 % 0.0 mm 74.0 W/m2 SCT
20:30 28.8 °C 17.4 °C 1008.0 hPa ESE 13.0 km/h 13.0 km/h 50 % 0.0 mm 67.0 W/m2 FEW
20:35 28.7 °C 17.6 °C 1008.0 hPa Calm     51 % 0.0 mm 47.0 W/m2 SCT
20:40 28.6 °C 17.8 °C 1008.0 hPa East 11.1 km/h 11.1 km/h 52 % 0.0 mm 42.0 W/m2 BKN
20:45 28.5 °C 17.7 °C 1008.0 hPa East 9.7 km/h 9.7 km/h 52 % 0.0 mm 49.0 W/m2 SCT
20:50 28.3 °C 17.8 °C 1008.0 hPa East 13.0 km/h 13.0 km/h 53 % 0.0 mm 33.0 W/m2 BKN
20:55 28.1 °C 17.9 °C 1008.0 hPa SE 16.7 km/h 16.7 km/h 54 % 0.0 mm 23.0 W/m2 BKN
21:00 27.9 °C 17.8 °C 1008.0 hPa SE 14.5 km/h 14.5 km/h 54 % 0.0 mm 21.0 W/m2 BKN
21:05 27.8 °C 17.9 °C 1008.0 hPa ESE 16.7 km/h 16.7 km/h 55 % 0.0 mm 18.0 W/m2 BKN
21:10 27.6 °C 18.1 °C 1008.0 hPa SE 11.1 km/h 11.1 km/h 56 % 0.0 mm 14.0 W/m2 BKN
21:15 27.5 °C 18.2 °C 1008.0 hPa ESE 9.7 km/h 9.7 km/h 57 % 0.0 mm 11.0 W/m2 BKN
21:20 27.4 °C 18.1 °C 1008.0 hPa ENE 9.3 km/h 9.3 km/h 57 % 0.0 mm 5.0 W/m2 OVC
21:25 27.2 °C 18.2 °C 1008.0 hPa Calm     58 % 0.0 mm 0.0 W/m2 OVC
21:30 27.1 °C 18.3 °C 1008.0 hPa Calm     59 % 0.0 mm 0.0 W/m2 OVC
21:35 26.8 °C 18.4 °C 1008.0 hPa East 5.6 km/h 5.6 km/h 60 % 0.0 mm 0.0 W/m2 OVC
21:40 26.7 °C 18.6 °C 1008.4 hPa Calm     61 % 0.0 mm 0.0 W/m2 CLR
21:45 26.6 °C 18.4 °C 1008.0 hPa ESE 11.1 km/h 11.1 km/h 61 % 0.0 mm 0.0 W/m2 CLR
21:50 26.4 °C 18.6 °C 1008.0 hPa SE 16.7 km/h 16.7 km/h 62 % 0.0 mm 0.0 W/m2 CLR
21:55 26.3 °C 18.4 °C 1008.4 hPa ESE 11.1 km/h 11.1 km/h 62 % 0.0 mm 0.0 W/m2 CLR
22:00 26.3 °C 18.4 °C 1008.4 hPa East 5.6 km/h   62 % 0.0 mm 0.0 W/m2 CLR
22:05 26.4 °C 18.3 °C 1008.4 hPa East 7.4 km/h 7.4 km/h 61 % 0.0 mm 0.0 W/m2 CLR
22:10 26.3 °C 18.4 °C 1008.4 hPa ESE 7.4 km/h 7.4 km/h 62 % 0.0 mm 0.0 W/m2 CLR
22:15 26.3 °C 18.4 °C 1008.4 hPa ESE 14.8 km/h 14.8 km/h 62 % 0.0 mm 0.0 W/m2 CLR
22:20 26.2 °C 18.3 °C 1008.4 hPa SE 5.6 km/h 5.6 km/h 62 % 0.0 mm 0.0 W/m2 CLR
22:25 26.2 °C 18.3 °C 1008.4 hPa SE 12.9 km/h 12.9 km/h 62 % 0.0 mm 0.0 W/m2 CLR
22:30 26.2 °C 18.3 °C 1008.4 hPa SE 14.8 km/h 14.8 km/h 62 % 0.0 mm 0.0 W/m2 CLR
22:35 26.1 °C 18.3 °C 1008.4 hPa SSE 9.3 km/h 9.3 km/h 62 % 0.0 mm 0.0 W/m2 CLR
22:40 26.2 °C 18.1 °C 1008.4 hPa ESE 5.6 km/h 5.6 km/h 61 % 0.0 mm 0.0 W/m2 CLR
22:45 26.2 °C 18.1 °C 1008.4 hPa East 9.3 km/h 9.3 km/h 61 % 0.0 mm 0.0 W/m2 CLR
22:50 26.1 °C 18.2 °C 1008.7 hPa Calm     62 % 0.0 mm 0.0 W/m2 CLR
22:55 25.9 °C 18.1 °C 1008.7 hPa Calm     62 % 0.0 mm 0.0 W/m2 CLR
23:00 25.8 °C 18.3 °C 1008.7 hPa Calm     63 % 0.0 mm 0.0 W/m2 CLR
23:06 25.7 °C 18.2 °C 1008.7 hPa Calm     63 % 0.0 mm 0.0 W/m2 CLR
23:11 25.6 °C 18.3 °C 1008.7 hPa Calm     64 % 0.0 mm 0.0 W/m2 CLR
23:16 25.5 °C 18.2 °C 1008.4 hPa Calm     64 % 0.0 mm 0.0 W/m2 CLR
23:21 25.3 °C 18.3 °C 1008.4 hPa Calm     65 % 0.0 mm 0.0 W/m2 CLR
23:26 25.2 °C 18.4 °C 1008.7 hPa ENE 1.9 km/h   66 % 0.0 mm 0.0 W/m2 CLR
23:31 25.1 °C 18.3 °C 1008.7 hPa Calm     66 % 0.0 mm 0.0 W/m2 CLR
23:36 25.1 °C 18.3 °C 1008.7 hPa ENE 3.2 km/h 3.2 km/h 66 % 0.0 mm 0.0 W/m2 CLR
23:41 25.1 °C 18.3 °C 1008.7 hPa Calm     66 % 0.0 mm 0.0 W/m2 CLR
23:46 25.0 °C 18.4 °C 1008.7 hPa Calm     67 % 0.0 mm 0.0 W/m2 CLR
23:51 24.9 °C 18.4 °C 1008.7 hPa Calm     67 % 0.0 mm 0.0 W/m2 CLR
23:56 24.9 °C 18.6 °C 1008.7 hPa Calm     68 % 0.0 mm 0.0 W/m2 CLR
Lo Temps de Massalio
Compliments of Weather Underground - 1.25 mb